createdAt,value
2022-12-05T00:01:20.395Z,24.67
2022-12-05T00:06:23.849Z,23.70
2022-12-05T00:11:26.658Z,23.52
2022-12-05T00:16:33.871Z,21.67
2022-12-05T00:21:38.139Z,21.40
2022-12-05T00:26:38.962Z,22.85
2022-12-05T00:31:39.870Z,21.70
2022-12-05T00:36:42.436Z,22.25
2022-12-05T00:41:43.989Z,24.95
2022-12-05T00:46:44.800Z,21.52
2022-12-05T00:51:46.943Z,28.70
2022-12-05T00:56:47.766Z,24.48
2022-12-05T01:01:50.241Z,25.45
2022-12-05T01:06:55.923Z,23.70
2022-12-05T01:11:56.708Z,22.70
2022-12-05T01:16:57.955Z,23.75
2022-12-05T01:22:00.415Z,25.02
2022-12-05T01:27:02.191Z,25.85
2022-12-05T01:32:03.145Z,23.48
2022-12-05T01:37:05.496Z,25.38
2022-12-05T01:42:06.996Z,24.23
2022-12-05T01:47:09.658Z,26.73
2022-12-05T01:52:15.504Z,23.52
2022-12-05T01:57:16.612Z,26.38
2022-12-05T02:02:17.769Z,24.80
2022-12-05T02:07:20.968Z,26.70
2022-12-05T02:12:23.195Z,24.45
2022-12-05T02:17:32.329Z,27.00
2022-12-05T02:23:03.598Z,26.58
2022-12-05T02:28:32.912Z,26.60
2022-12-05T02:33:40.517Z,26.58
2022-12-05T02:38:51.877Z,23.77
2022-12-05T02:43:57.994Z,25.40
2022-12-05T02:49:04.547Z,24.25
2022-12-05T02:54:11.397Z,22.92
2022-12-05T02:59:12.348Z,21.15
2022-12-05T03:04:15.970Z,22.83
2022-12-05T03:09:22.898Z,21.00
2022-12-05T03:14:28.024Z,22.48
2022-12-05T03:19:33.753Z,19.85
2022-12-05T03:24:37.396Z,20.23
2022-12-05T03:29:43.967Z,21.02
2022-12-05T03:34:56.505Z,25.75
2022-12-05T03:40:07.554Z,22.35
2022-12-05T03:45:12.719Z,26.88
2022-12-05T03:50:20.756Z,17.95
2022-12-05T03:55:24.541Z,23.05
2022-12-05T04:00:25.979Z,21.83
2022-12-05T04:05:33.422Z,19.13
2022-12-05T04:10:48.706Z,20.00
2022-12-05T04:16:12.142Z,19.60
2022-12-05T04:21:34.097Z,16.77
2022-12-05T04:26:37.562Z,17.20
2022-12-05T04:31:43.568Z,20.42
2022-12-05T04:36:51.314Z,17.85
2022-12-05T04:41:55.991Z,15.57
2022-12-05T04:47:01.198Z,18.40
2022-12-05T04:52:06.818Z,18.02
2022-12-05T04:57:13.092Z,14.65
2022-12-05T05:02:18.088Z,16.83
2022-12-05T05:07:21.087Z,18.63
2022-12-05T05:12:21.866Z,15.85
2022-12-05T05:17:22.623Z,17.13
2022-12-05T05:22:24.910Z,14.85
2022-12-05T05:27:25.735Z,16.42
2022-12-05T05:32:26.569Z,13.07
2022-12-05T05:37:28.647Z,15.25
2022-12-05T05:42:29.556Z,16.02
2022-12-05T05:47:30.342Z,12.63
2022-12-05T05:52:33.878Z,13.38
2022-12-05T05:57:34.712Z,16.20
2022-12-05T06:02:36.484Z,16.35
2022-12-05T06:07:38.831Z,14.68
2022-12-05T06:12:39.676Z,16.65
2022-12-05T06:17:40.502Z,13.82
2022-12-05T06:22:43.075Z,15.38
2022-12-05T06:27:43.872Z,16.52
2022-12-05T06:32:44.708Z,15.77
2022-12-05T06:37:47.088Z,15.55
2022-12-05T06:42:47.876Z,19.40
2022-12-05T06:47:48.761Z,18.80
2022-12-05T06:52:51.296Z,16.40
2022-12-05T06:57:52.059Z,23.85
2022-12-05T07:02:53.546Z,16.48
2022-12-05T07:07:55.819Z,16.15
2022-12-05T07:12:57.375Z,18.60
2022-12-05T07:17:58.156Z,16.77
2022-12-05T07:23:00.364Z,14.38
2022-12-05T07:28:01.191Z,15.65
2022-12-05T07:33:04.677Z,18.15
2022-12-05T07:38:07.089Z,16.50
2022-12-05T07:43:07.909Z,18.08
2022-12-05T07:48:08.771Z,14.57
2022-12-05T07:53:11.063Z,19.17
2022-12-05T07:58:11.923Z,18.30
2022-12-05T08:03:12.709Z,18.45
2022-12-05T08:08:15.018Z,16.33
2022-12-05T08:13:15.980Z,18.27
2022-12-05T08:18:16.785Z,15.52
2022-12-05T08:23:19.006Z,16.38
2022-12-05T08:28:19.916Z,16.35
2022-12-05T08:33:20.792Z,15.68
2022-12-05T08:38:22.950Z,17.50
2022-12-05T08:43:23.901Z,16.77
2022-12-05T08:48:29.178Z,17.52
2022-12-05T08:53:31.830Z,23.30
2022-12-05T08:58:33.453Z,24.98
2022-12-05T09:03:34.842Z,29.90
2022-12-05T09:08:37.343Z,37.13
2022-12-05T09:13:38.890Z,41.40
2022-12-05T09:18:40.080Z,40.28
2022-12-05T09:23:43.504Z,33.92
2022-12-05T09:28:45.239Z,42.95
2022-12-05T09:34:04.917Z,43.05
2022-12-05T09:39:08.477Z,34.47
2022-12-05T09:44:21.419Z,31.35
2022-12-05T09:49:24.518Z,32.40
2022-12-05T09:54:27.483Z,26.92
2022-12-05T09:59:28.441Z,28.20
2022-12-05T10:04:52.400Z,21.80
2022-12-05T10:10:20.273Z,25.27
2022-12-05T10:15:27.681Z,23.13
2022-12-05T10:20:34.870Z,20.00
2022-12-05T10:25:39.796Z,20.58
2022-12-05T10:30:43.093Z,21.05
2022-12-05T10:35:44.518Z,23.17
2022-12-05T10:40:51.079Z,17.08
2022-12-05T10:45:52.197Z,16.20
2022-12-05T10:50:54.596Z,21.30
2022-12-05T11:01:18.102Z,18.98
2022-12-05T11:06:24.584Z,17.85
2022-12-05T11:11:29.502Z,17.48
2022-12-05T11:16:33.978Z,19.63
2022-12-05T11:21:43.391Z,22.30
2022-12-05T11:26:45.777Z,19.40
2022-12-05T11:31:52.792Z,21.05
2022-12-05T11:36:57.222Z,20.17
2022-12-05T11:42:17.847Z,19.77
2022-12-05T11:47:33.028Z,19.25
2022-12-05T11:52:53.138Z,18.95
2022-12-05T11:58:19.565Z,19.30
2022-12-05T12:04:05.137Z,17.83
2022-12-05T12:09:54.298Z,19.08
2022-12-05T12:15:11.935Z,17.48
2022-12-05T12:20:36.854Z,20.00
2022-12-05T12:25:47.400Z,20.48
2022-12-05T12:31:02.564Z,22.33
2022-12-05T12:36:13.387Z,18.85
2022-12-05T12:41:20.307Z,16.85
2022-12-05T12:46:37.639Z,19.63
2022-12-05T12:51:53.121Z,21.73
2022-12-05T12:57:07.116Z,17.73
2022-12-05T13:02:19.682Z,14.68
2022-12-05T13:07:29.249Z,15.32
2022-12-05T13:12:34.585Z,17.85
2022-12-05T13:17:39.947Z,17.67
2022-12-05T13:22:41.057Z,20.98
2022-12-05T13:27:43.292Z,16.10
2022-12-05T13:32:49.256Z,16.63
2022-12-05T13:38:07.717Z,19.60
2022-12-05T13:43:08.868Z,18.00
2022-12-05T13:48:23.270Z,19.77
2022-12-05T13:53:33.652Z,18.73
2022-12-05T13:58:49.748Z,19.42
2022-12-05T14:04:00.740Z,13.43
2022-12-05T14:09:02.719Z,16.38
2022-12-05T14:14:04.912Z,18.88
2022-12-05T14:19:17.468Z,19.65
2022-12-05T14:24:28.396Z,12.45
2022-12-05T14:29:39.162Z,10.93
2022-12-05T14:34:53.476Z,16.13
2022-12-05T14:39:56.988Z,10.18
2022-12-05T14:45:00.802Z,11.18
2022-12-05T14:50:24.643Z,10.50
2022-12-05T14:55:27.197Z,11.02
2022-12-05T15:00:28.242Z,10.50
2022-12-05T15:05:33.019Z,11.65
2022-12-05T15:10:36.480Z,11.07
2022-12-05T15:15:42.437Z,10.70
2022-12-05T15:20:49.210Z,14.15
2022-12-05T15:25:57.190Z,16.77
2022-12-05T15:30:58.917Z,15.82
2022-12-05T15:36:03.099Z,15.10
2022-12-05T15:41:03.902Z,14.77
2022-12-05T15:46:23.858Z,16.92
2022-12-05T15:51:32.938Z,20.17
2022-12-05T15:56:37.648Z,20.63
2022-12-05T16:01:44.482Z,16.88
2022-12-05T16:06:49.568Z,16.98
2022-12-05T16:11:55.028Z,19.83
2022-12-05T16:17:00.568Z,17.65
2022-12-05T16:22:09.217Z,16.50
2022-12-05T16:27:16.295Z,17.35
2022-12-05T16:32:24.292Z,16.70
2022-12-05T16:37:28.629Z,15.32
2022-12-05T16:42:30.694Z,18.35
2022-12-05T16:48:01.726Z,18.10
2022-12-05T16:53:19.748Z,16.98
2022-12-05T16:58:26.050Z,18.98
2022-12-05T17:03:36.257Z,18.40
2022-12-05T17:08:38.689Z,15.88
2022-12-05T17:13:39.758Z,14.43
2022-12-05T17:18:40.685Z,16.30
2022-12-05T17:23:49.985Z,17.05
2022-12-05T17:28:51.470Z,16.63
2022-12-05T17:33:54.458Z,21.23
2022-12-05T17:38:56.761Z,17.95
2022-12-05T17:43:57.609Z,19.95
2022-12-05T17:48:58.967Z,21.13
2022-12-05T17:54:01.406Z,21.58
2022-12-05T17:59:06.999Z,20.80
2022-12-05T18:04:10.207Z,22.08
2022-12-05T18:09:12.451Z,15.63
2022-12-05T18:14:13.361Z,19.35
2022-12-05T18:19:14.178Z,18.55
2022-12-05T18:24:16.516Z,13.45
2022-12-05T18:29:17.535Z,17.88
2022-12-05T18:34:18.691Z,17.20
2022-12-05T18:39:21.075Z,15.25
2022-12-05T18:44:21.901Z,15.02
2022-12-05T18:49:22.943Z,18.95
2022-12-05T18:54:25.272Z,17.60
2022-12-05T18:59:26.408Z,18.27
2022-12-05T19:04:29.988Z,15.30
2022-12-05T19:09:33.368Z,16.88
2022-12-05T19:14:35.234Z,15.55
2022-12-05T19:19:36.055Z,16.50
2022-12-05T19:24:38.219Z,17.25
2022-12-05T19:29:39.101Z,17.02
2022-12-05T19:34:39.936Z,16.42
2022-12-05T19:39:43.249Z,17.83
2022-12-05T19:44:45.243Z,15.07
2022-12-05T19:49:46.084Z,16.83
2022-12-05T19:54:48.321Z,14.25
2022-12-05T19:59:49.383Z,15.02
2022-12-05T20:04:50.199Z,16.33
2022-12-05T20:09:52.668Z,16.25
2022-12-05T20:14:53.485Z,15.07
2022-12-05T20:19:54.361Z,16.73
2022-12-05T20:24:56.694Z,19.45
2022-12-05T20:29:57.805Z,16.90
2022-12-05T20:34:58.845Z,18.80
2022-12-05T20:40:01.272Z,18.35
2022-12-05T20:45:02.400Z,16.17
2022-12-05T20:50:03.268Z,18.58
2022-12-05T20:55:06.399Z,17.13
2022-12-05T21:00:08.840Z,16.85
2022-12-05T21:05:13.056Z,17.90
2022-12-05T21:10:16.369Z,18.00
2022-12-05T21:15:17.350Z,22.65
2022-12-05T21:20:18.382Z,17.80
2022-12-05T21:25:20.673Z,21.00
2022-12-05T21:30:21.533Z,14.23
2022-12-05T21:35:22.514Z,11.50
2022-12-05T21:40:24.703Z,10.18
2022-12-05T21:45:25.860Z,8.27
2022-12-05T21:50:26.885Z,6.75
2022-12-05T21:55:29.087Z,6.95
2022-12-05T22:00:29.990Z,8.25
2022-12-05T22:05:30.979Z,6.00
2022-12-05T22:10:34.512Z,9.93
2022-12-05T22:15:35.404Z,7.00
2022-12-05T22:20:36.254Z,7.28
2022-12-05T22:25:38.414Z,7.40
2022-12-05T22:30:39.274Z,6.32
2022-12-05T22:35:40.190Z,5.95
2022-12-05T22:40:42.398Z,5.43
2022-12-05T22:45:43.177Z,5.72
2022-12-05T22:50:48.481Z,7.03
2022-12-05T22:55:51.510Z,5.30
2022-12-05T23:00:52.344Z,5.82
2022-12-05T23:05:53.220Z,8.10
2022-12-05T23:10:59.510Z,7.13
2022-12-05T23:16:00.481Z,7.95
2022-12-05T23:21:04.199Z,6.57
2022-12-05T23:26:07.482Z,7.70
2022-12-05T23:31:09.955Z,8.77
2022-12-05T23:36:12.585Z,9.80
2022-12-05T23:41:17.120Z,6.03
2022-12-05T23:46:20.342Z,7.05
2022-12-05T23:51:23.180Z,12.27
2022-12-05T23:56:28.692Z,7.95
